Search for airport 
image banner adimage banner adimage banner ad
image banner ad

5PS1 - Lancaster General Hospital

Located in Lancaster, United States

ICAO - 5PS1, IATA -

Data provided by Airmate  

General information

Coordinates: N40°2'52" W76°18'13"
Elevation is 406 feet MSL.
Magnetic variation is -11° East
View others Airports in Pennsylvania

Operational data

Special qualification required
Current time UTC:
Current local time:
Weather at : KLNS - Lancaster ( 8 km )
METAR: KLNS 182253Z 25009KT 10SM CLR 26/06 A3026 RMK AO2 SLP244 T02560061
TAF: KLNS 182225Z 1822/1918 VRB04KT P6SM SKC FM190100 00000KT P6SM SKC FM191300 VRB04KT P6SM SKC
View NOTAMs / SUP AIP / TFR affecting this airport [VIEW]
Communications frequencies: [VIEW]

Runways:

Airport contact information

Address: Lancaster United States

Satellite view of 5PS1